Mc Cool, Mississippi
Current Conditions -  °F | °C
As of 4:15 PM on Thursday 18 Dec 2014 (Local Time) from KSTF Reporting Station
Overcast Overcast  
Wind Chill: 10°   Ceiling: 3900
Heat Index: 10°   Visibility: 10mi
Dew Point:   Wind: 0mph
Humidity: 54%   Direction: NA
Pressure: 30.16"   Gusts: NA
Location:  33.1664°N, 89.3301°W
Report Text: KSTF 182215Z AUTO 00000KT 10SM OVC039 10/01 A3016 RMK AO2
Loading
Personal Weather Stations






























Interactive Weather Map New forecast layout! Learn more

10-Day Weather Forecast

Advertisements
Track Severe Weather on mobile